sensor_id;sensor_type;location;lat;lon;timestamp;P1;durP1;ratioP1;P2;durP2;ratioP2
44272;SDS011;29964;17.182;-96.766;2023-07-28T00:00:37;5.50;;;2.63;;
44272;SDS011;29964;17.182;-96.766;2023-07-28T00:03:04;4.17;;;2.03;;
44272;SDS011;29964;17.182;-96.766;2023-07-28T00:05:30;11.33;;;4.90;;
44272;SDS011;29964;17.182;-96.766;2023-07-28T00:07:57;3.90;;;2.87;;
44272;SDS011;29964;17.182;-96.766;2023-07-28T00:10:24;5.87;;;3.03;;
44272;SDS011;29964;17.182;-96.766;2023-07-28T00:12:51;5.20;;;2.07;;
44272;SDS011;29964;17.182;-96.766;2023-07-28T00:15:18;4.57;;;3.33;;
44272;SDS011;29964;17.182;-96.766;2023-07-28T00:17:45;7.57;;;5.13;;
44272;SDS011;29964;17.182;-96.766;2023-07-28T00:20:12;5.33;;;3.30;;
44272;SDS011;29964;17.182;-96.766;2023-07-28T00:22:38;3.17;;;2.20;;
44272;SDS011;29964;17.182;-96.766;2023-07-28T00:25:05;6.57;;;3.40;;
44272;SDS011;29964;17.182;-96.766;2023-07-28T00:27:32;6.67;;;2.80;;
44272;SDS011;29964;17.182;-96.766;2023-07-28T00:29:59;9.27;;;4.37;;
44272;SDS011;29964;17.182;-96.766;2023-07-28T00:32:25;7.73;;;3.93;;
44272;SDS011;29964;17.182;-96.766;2023-07-28T00:34:52;3.83;;;2.50;;
44272;SDS011;29964;17.182;-96.766;2023-07-28T00:37:19;5.57;;;2.97;;
44272;SDS011;29964;17.182;-96.766;2023-07-28T00:39:46;3.57;;;2.63;;
44272;SDS011;29964;17.182;-96.766;2023-07-28T00:42:13;4.10;;;2.63;;
44272;SDS011;29964;17.182;-96.766;2023-07-28T00:44:39;8.13;;;2.30;;
44272;SDS011;29964;17.182;-96.766;2023-07-28T00:47:06;11.97;;;3.43;;
44272;SDS011;29964;17.182;-96.766;2023-07-28T00:49:33;13.60;;;3.57;;
44272;SDS011;29964;17.182;-96.766;2023-07-28T00:52:00;8.03;;;3.47;;
44272;SDS011;29964;17.182;-96.766;2023-07-28T00:54:27;3.13;;;1.90;;
44272;SDS011;29964;17.182;-96.766;2023-07-28T00:56:54;4.70;;;1.87;;
44272;SDS011;29964;17.182;-96.766;2023-07-28T00:59:21;2.20;;;1.67;;
44272;SDS011;29964;17.182;-96.766;2023-07-28T01:01:48;3.70;;;2.30;;
44272;SDS011;29964;17.182;-96.766;2023-07-28T01:04:15;3.03;;;1.73;;
44272;SDS011;29964;17.182;-96.766;2023-07-28T01:09:09;3.63;;;2.47;;
44272;SDS011;29964;17.182;-96.766;2023-07-28T01:11:37;9.17;;;2.50;;
44272;SDS011;29964;17.182;-96.766;2023-07-28T01:14:04;3.60;;;2.00;;
44272;SDS011;29964;17.182;-96.766;2023-07-28T01:16:31;4.10;;;2.53;;
44272;SDS011;29964;17.182;-96.766;2023-07-28T01:18:57;2.10;;;1.57;;
44272;SDS011;29964;17.182;-96.766;2023-07-28T01:21:28;2.33;;;1.60;;
44272;SDS011;29964;17.182;-96.766;2023-07-28T01:26:33;4.67;;;2.37;;
44272;SDS011;29964;17.182;-96.766;2023-07-28T01:29:01;6.87;;;2.43;;
44272;SDS011;29964;17.182;-96.766;2023-07-28T01:31:29;4.90;;;2.17;;
44272;SDS011;29964;17.182;-96.766;2023-07-28T01:33:55;2.97;;;2.03;;
44272;SDS011;29964;17.182;-96.766;2023-07-28T01:36:22;2.07;;;1.23;;
44272;SDS011;29964;17.182;-96.766;2023-07-28T01:38:49;6.40;;;2.97;;
44272;SDS011;29964;17.182;-96.766;2023-07-28T01:41:16;3.77;;;2.60;;
44272;SDS011;29964;17.182;-96.766;2023-07-28T01:43:43;5.23;;;2.87;;
44272;SDS011;29964;17.182;-96.766;2023-07-28T01:46:09;6.10;;;2.73;;
44272;SDS011;29964;17.182;-96.766;2023-07-28T01:48:37;3.03;;;2.13;;
44272;SDS011;29964;17.182;-96.766;2023-07-28T01:51:03;5.53;;;2.63;;
44272;SDS011;29964;17.182;-96.766;2023-07-28T01:53:30;3.37;;;2.10;;
44272;SDS011;29964;17.182;-96.766;2023-07-28T01:55:57;3.67;;;2.00;;
44272;SDS011;29964;17.182;-96.766;2023-07-28T01:58:26;4.50;;;2.00;;
44272;SDS011;29964;17.182;-96.766;2023-07-28T02:00:53;4.63;;;2.37;;
44272;SDS011;29964;17.182;-96.766;2023-07-28T02:03:19;5.20;;;2.73;;
44272;SDS011;29964;17.182;-96.766;2023-07-28T02:05:46;2.73;;;2.10;;
44272;SDS011;29964;17.182;-96.766;2023-07-28T02:08:13;4.80;;;2.47;;
44272;SDS011;29964;17.182;-96.766;2023-07-28T02:10:40;7.33;;;1.90;;
44272;SDS011;29964;17.182;-96.766;2023-07-28T02:13:06;4.27;;;2.00;;
44272;SDS011;29964;17.182;-96.766;2023-07-28T02:15:33;4.70;;;1.97;;
44272;SDS011;29964;17.182;-96.766;2023-07-28T02:18:00;3.03;;;2.10;;
44272;SDS011;29964;17.182;-96.766;2023-07-28T02:20:27;3.60;;;2.00;;
44272;SDS011;29964;17.182;-96.766;2023-07-28T02:22:53;4.47;;;2.00;;
44272;SDS011;29964;17.182;-96.766;2023-07-28T02:25:21;3.43;;;1.77;;
44272;SDS011;29964;17.182;-96.766;2023-07-28T02:27:48;3.07;;;1.67;;
44272;SDS011;29964;17.182;-96.766;2023-07-28T02:30:15;3.13;;;1.83;;
44272;SDS011;29964;17.182;-96.766;2023-07-28T02:32:42;2.67;;;1.93;;
44272;SDS011;29964;17.182;-96.766;2023-07-28T02:35:08;6.57;;;2.10;;
44272;SDS011;29964;17.182;-96.766;2023-07-28T02:37:36;4.10;;;1.83;;
44272;SDS011;29964;17.182;-96.766;2023-07-28T02:40:03;3.53;;;1.93;;
44272;SDS011;29964;17.182;-96.766;2023-07-28T02:42:29;9.20;;;3.03;;
44272;SDS011;29964;17.182;-96.766;2023-07-28T02:44:59;4.17;;;1.73;;
44272;SDS011;29964;17.182;-96.766;2023-07-28T02:47:26;5.57;;;2.10;;
44272;SDS011;29964;17.182;-96.766;2023-07-28T02:49:52;3.03;;;2.17;;
44272;SDS011;29964;17.182;-96.766;2023-07-28T02:52:19;2.77;;;2.10;;
44272;SDS011;29964;17.182;-96.766;2023-07-28T02:54:46;5.33;;;3.20;;
44272;SDS011;29964;17.182;-96.766;2023-07-28T02:57:13;12.37;;;2.73;;
44272;SDS011;29964;17.182;-96.766;2023-07-28T02:59:40;4.73;;;2.50;;
44272;SDS011;29964;17.182;-96.766;2023-07-28T03:02:06;5.60;;;2.80;;
44272;SDS011;29964;17.182;-96.766;2023-07-28T03:04:33;4.47;;;2.87;;
44272;SDS011;29964;17.182;-96.766;2023-07-28T03:07:00;3.57;;;2.00;;
44272;SDS011;29964;17.182;-96.766;2023-07-28T03:09:27;21.73;;;3.23;;
44272;SDS011;29964;17.182;-96.766;2023-07-28T03:11:54;3.87;;;2.50;;
44272;SDS011;29964;17.182;-96.766;2023-07-28T03:14:21;13.13;;;3.63;;
44272;SDS011;29964;17.182;-96.766;2023-07-28T03:16:48;7.03;;;2.77;;
44272;SDS011;29964;17.182;-96.766;2023-07-28T03:19:15;6.17;;;3.13;;
44272;SDS011;29964;17.182;-96.766;2023-07-28T03:21:42;11.20;;;3.57;;
44272;SDS011;29964;17.182;-96.766;2023-07-28T03:24:09;25.20;;;2.73;;
44272;SDS011;29964;17.182;-96.766;2023-07-28T03:26:36;6.40;;;2.47;;
44272;SDS011;29964;17.182;-96.766;2023-07-28T03:29:03;7.17;;;2.80;;
44272;SDS011;29964;17.182;-96.766;2023-07-28T03:31:30;6.83;;;3.27;;
44272;SDS011;29964;17.182;-96.766;2023-07-28T03:33:57;8.23;;;3.53;;
44272;SDS011;29964;17.182;-96.766;2023-07-28T03:36:23;9.83;;;3.07;;
44272;SDS011;29964;17.182;-96.766;2023-07-28T03:38:50;6.90;;;3.17;;
44272;SDS011;29964;17.182;-96.766;2023-07-28T03:41:17;3.33;;;2.50;;
44272;SDS011;29964;17.182;-96.766;2023-07-28T03:43:44;3.67;;;2.60;;
44272;SDS011;29964;17.182;-96.766;2023-07-28T03:46:11;5.50;;;3.57;;
44272;SDS011;29964;17.182;-96.766;2023-07-28T03:48:38;2.10;;;1.90;;
44272;SDS011;29964;17.182;-96.766;2023-07-28T03:51:05;2.17;;;1.60;;
44272;SDS011;29964;17.182;-96.766;2023-07-28T03:53:32;3.47;;;2.40;;
44272;SDS011;29964;17.182;-96.766;2023-07-28T03:56:01;4.97;;;2.20;;
44272;SDS011;29964;17.182;-96.766;2023-07-28T03:58:28;2.90;;;1.80;;
44272;SDS011;29964;17.182;-96.766;2023-07-28T04:00:55;3.13;;;2.10;;
44272;SDS011;29964;17.182;-96.766;2023-07-28T04:03:21;2.07;;;1.50;;
44272;SDS011;29964;17.182;-96.766;2023-07-28T04:05:48;8.00;;;3.27;;
44272;SDS011;29964;17.182;-96.766;2023-07-28T04:08:15;3.03;;;1.97;;
44272;SDS011;29964;17.182;-96.766;2023-07-28T04:10:42;4.27;;;2.13;;
44272;SDS011;29964;17.182;-96.766;2023-07-28T04:13:08;3.80;;;2.03;;
44272;SDS011;29964;17.182;-96.766;2023-07-28T04:15:35;8.83;;;2.30;;
44272;SDS011;29964;17.182;-96.766;2023-07-28T04:18:02;2.30;;;1.83;;
44272;SDS011;29964;17.182;-96.766;2023-07-28T04:20:29;7.83;;;1.93;;
44272;SDS011;29964;17.182;-96.766;2023-07-28T04:22:56;14.63;;;2.37;;
44272;SDS011;29964;17.182;-96.766;2023-07-28T04:25:23;8.83;;;2.97;;
44272;SDS011;29964;17.182;-96.766;2023-07-28T04:27:49;11.23;;;2.20;;
44272;SDS011;29964;17.182;-96.766;2023-07-28T04:30:16;4.40;;;1.83;;
44272;SDS011;29964;17.182;-96.766;2023-07-28T04:32:43;2.83;;;1.80;;
44272;SDS011;29964;17.182;-96.766;2023-07-28T04:35:10;6.47;;;2.40;;
44272;SDS011;29964;17.182;-96.766;2023-07-28T04:37:37;3.70;;;1.83;;
44272;SDS011;29964;17.182;-96.766;2023-07-28T04:40:04;1.83;;;1.23;;
44272;SDS011;29964;17.182;-96.766;2023-07-28T04:42:31;3.27;;;2.23;;
44272;SDS011;29964;17.182;-96.766;2023-07-28T04:44:57;6.17;;;1.93;;
44272;SDS011;29964;17.182;-96.766;2023-07-28T04:47:24;2.90;;;2.13;;
44272;SDS011;29964;17.182;-96.766;2023-07-28T04:49:51;2.73;;;2.00;;
44272;SDS011;29964;17.182;-96.766;2023-07-28T04:52:18;4.10;;;1.87;;
44272;SDS011;29964;17.182;-96.766;2023-07-28T04:54:44;4.53;;;1.77;;
44272;SDS011;29964;17.182;-96.766;2023-07-28T04:57:11;3.10;;;2.07;;
44272;SDS011;29964;17.182;-96.766;2023-07-28T04:59:38;2.47;;;1.37;;
44272;SDS011;29964;17.182;-96.766;2023-07-28T05:02:05;4.00;;;2.03;;
44272;SDS011;29964;17.182;-96.766;2023-07-28T05:04:32;4.57;;;2.40;;
44272;SDS011;29964;17.182;-96.766;2023-07-28T05:06:59;9.63;;;2.67;;
44272;SDS011;29964;17.182;-96.766;2023-07-28T05:09:26;6.00;;;2.33;;
44272;SDS011;29964;17.182;-96.766;2023-07-28T05:11:53;4.17;;;2.37;;
44272;SDS011;29964;17.182;-96.766;2023-07-28T05:14:20;7.50;;;2.20;;
44272;SDS011;29964;17.182;-96.766;2023-07-28T05:16:47;12.67;;;2.47;;
44272;SDS011;29964;17.182;-96.766;2023-07-28T05:19:14;15.37;;;2.40;;
44272;SDS011;29964;17.182;-96.766;2023-07-28T05:21:40;6.17;;;2.10;;
44272;SDS011;29964;17.182;-96.766;2023-07-28T05:24:07;5.77;;;2.70;;
44272;SDS011;29964;17.182;-96.766;2023-07-28T05:26:34;3.03;;;1.83;;
44272;SDS011;29964;17.182;-96.766;2023-07-28T05:29:01;3.77;;;2.17;;
44272;SDS011;29964;17.182;-96.766;2023-07-28T05:31:28;4.67;;;1.87;;
44272;SDS011;29964;17.182;-96.766;2023-07-28T05:33:55;5.93;;;2.60;;
44272;SDS011;29964;17.182;-96.766;2023-07-28T05:36:22;4.57;;;2.13;;
44272;SDS011;29964;17.182;-96.766;2023-07-28T05:38:49;2.93;;;1.90;;
44272;SDS011;29964;17.182;-96.766;2023-07-28T05:41:18;3.43;;;2.20;;
44272;SDS011;29964;17.182;-96.766;2023-07-28T05:43:45;3.70;;;2.07;;
44272;SDS011;29964;17.182;-96.766;2023-07-28T05:46:12;3.67;;;2.00;;
44272;SDS011;29964;17.182;-96.766;2023-07-28T05:48:39;5.83;;;2.40;;
44272;SDS011;29964;17.182;-96.766;2023-07-28T05:51:06;26.03;;;2.60;;
44272;SDS011;29964;17.182;-96.766;2023-07-28T05:53:33;7.67;;;2.40;;
44272;SDS011;29964;17.182;-96.766;2023-07-28T05:55:59;2.47;;;1.77;;
44272;SDS011;29964;17.182;-96.766;2023-07-28T05:58:26;3.53;;;1.60;;
44272;SDS011;29964;17.182;-96.766;2023-07-28T06:00:53;4.47;;;2.13;;
44272;SDS011;29964;17.182;-96.766;2023-07-28T06:03:20;3.47;;;1.90;;
44272;SDS011;29964;17.182;-96.766;2023-07-28T06:05:46;11.50;;;3.40;;
44272;SDS011;29964;17.182;-96.766;2023-07-28T06:08:13;3.97;;;1.93;;
44272;SDS011;29964;17.182;-96.766;2023-07-28T06:10:40;3.17;;;1.70;;
44272;SDS011;29964;17.182;-96.766;2023-07-28T06:13:07;3.07;;;1.77;;
44272;SDS011;29964;17.182;-96.766;2023-07-28T06:15:34;2.20;;;1.10;;
44272;SDS011;29964;17.182;-96.766;2023-07-28T06:18:02;3.07;;;1.77;;
44272;SDS011;29964;17.182;-96.766;2023-07-28T06:20:29;2.30;;;1.40;;
44272;SDS011;29964;17.182;-96.766;2023-07-28T06:22:56;2.27;;;1.10;;
44272;SDS011;29964;17.182;-96.766;2023-07-28T06:25:22;2.77;;;1.63;;
44272;SDS011;29964;17.182;-96.766;2023-07-28T06:27:49;1.97;;;1.30;;
44272;SDS011;29964;17.182;-96.766;2023-07-28T06:30:16;1.47;;;1.27;;
44272;SDS011;29964;17.182;-96.766;2023-07-28T06:32:43;2.30;;;1.83;;
44272;SDS011;29964;17.182;-96.766;2023-07-28T06:35:10;3.30;;;1.40;;
44272;SDS011;29964;17.182;-96.766;2023-07-28T06:37:37;1.80;;;1.40;;
44272;SDS011;29964;17.182;-96.766;2023-07-28T06:40:05;0.70;;;0.70;;
44272;SDS011;29964;17.182;-96.766;2023-07-28T06:42:35;3.03;;;1.80;;
44272;SDS011;29964;17.182;-96.766;2023-07-28T06:45:03;3.63;;;2.13;;
44272;SDS011;29964;17.182;-96.766;2023-07-28T06:47:29;2.63;;;1.37;;
44272;SDS011;29964;17.182;-96.766;2023-07-28T06:49:56;4.33;;;1.77;;
44272;SDS011;29964;17.182;-96.766;2023-07-28T06:52:23;2.73;;;1.70;;
44272;SDS011;29964;17.182;-96.766;2023-07-28T06:54:50;1.80;;;1.33;;
44272;SDS011;29964;17.182;-96.766;2023-07-28T06:57:17;13.27;;;1.53;;
44272;SDS011;29964;17.182;-96.766;2023-07-28T06:59:44;3.03;;;1.43;;
44272;SDS011;29964;17.182;-96.766;2023-07-28T07:02:11;4.00;;;1.10;;
44272;SDS011;29964;17.182;-96.766;2023-07-28T07:04:38;3.53;;;1.63;;
44272;SDS011;29964;17.182;-96.766;2023-07-28T07:07:05;3.47;;;1.10;;
44272;SDS011;29964;17.182;-96.766;2023-07-28T07:09:31;1.77;;;1.13;;
44272;SDS011;29964;17.182;-96.766;2023-07-28T07:11:58;1.27;;;0.93;;
44272;SDS011;29964;17.182;-96.766;2023-07-28T07:14:25;0.80;;;0.73;;
44272;SDS011;29964;17.182;-96.766;2023-07-28T07:16:52;1.40;;;0.93;;
44272;SDS011;29964;17.182;-96.766;2023-07-28T07:19:18;4.17;;;1.20;;
44272;SDS011;29964;17.182;-96.766;2023-07-28T07:21:45;3.70;;;1.73;;
44272;SDS011;29964;17.182;-96.766;2023-07-28T07:24:14;3.63;;;1.70;;
44272;SDS011;29964;17.182;-96.766;2023-07-28T07:26:41;2.57;;;1.47;;
44272;SDS011;29964;17.182;-96.766;2023-07-28T07:29:08;3.30;;;1.63;;
44272;SDS011;29964;17.182;-96.766;2023-07-28T07:31:35;4.13;;;1.97;;
44272;SDS011;29964;17.182;-96.766;2023-07-28T07:34:02;2.30;;;1.57;;
44272;SDS011;29964;17.182;-96.766;2023-07-28T07:36:29;1.20;;;0.77;;
44272;SDS011;29964;17.182;-96.766;2023-07-28T07:38:57;1.37;;;0.70;;
44272;SDS011;29964;17.182;-96.766;2023-07-28T07:41:24;1.80;;;1.40;;
44272;SDS011;29964;17.182;-96.766;2023-07-28T07:43:52;2.07;;;1.50;;
44272;SDS011;29964;17.182;-96.766;2023-07-28T07:46:19;1.67;;;1.07;;
44272;SDS011;29964;17.182;-96.766;2023-07-28T07:48:46;1.90;;;0.90;;
44272;SDS011;29964;17.182;-96.766;2023-07-28T07:51:14;1.77;;;1.20;;
44272;SDS011;29964;17.182;-96.766;2023-07-28T07:53:41;4.43;;;1.33;;
44272;SDS011;29964;17.182;-96.766;2023-07-28T07:56:08;3.83;;;1.20;;
44272;SDS011;29964;17.182;-96.766;2023-07-28T07:58:35;2.17;;;1.40;;
44272;SDS011;29964;17.182;-96.766;2023-07-28T08:01:03;1.63;;;1.10;;
44272;SDS011;29964;17.182;-96.766;2023-07-28T08:03:30;1.67;;;1.20;;
44272;SDS011;29964;17.182;-96.766;2023-07-28T08:06:01;3.13;;;1.60;;
44272;SDS011;29964;17.182;-96.766;2023-07-28T08:08:29;1.87;;;1.33;;
44272;SDS011;29964;17.182;-96.766;2023-07-28T08:10:56;2.43;;;1.13;;
44272;SDS011;29964;17.182;-96.766;2023-07-28T08:13:23;2.70;;;1.73;;
44272;SDS011;29964;17.182;-96.766;2023-07-28T08:15:50;2.20;;;1.40;;
44272;SDS011;29964;17.182;-96.766;2023-07-28T08:18:17;2.50;;;1.53;;
44272;SDS011;29964;17.182;-96.766;2023-07-28T08:20:44;2.03;;;1.20;;
44272;SDS011;29964;17.182;-96.766;2023-07-28T08:23:11;4.50;;;2.67;;
44272;SDS011;29964;17.182;-96.766;2023-07-28T08:25:37;1.87;;;1.20;;
44272;SDS011;29964;17.182;-96.766;2023-07-28T08:28:04;4.73;;;1.77;;
44272;SDS011;29964;17.182;-96.766;2023-07-28T08:30:31;4.47;;;1.30;;
44272;SDS011;29964;17.182;-96.766;2023-07-28T08:32:58;4.07;;;1.73;;
44272;SDS011;29964;17.182;-96.766;2023-07-28T08:35:25;3.23;;;1.77;;
44272;SDS011;29964;17.182;-96.766;2023-07-28T08:37:52;5.67;;;0.87;;
44272;SDS011;29964;17.182;-96.766;2023-07-28T08:40:19;3.40;;;1.60;;
44272;SDS011;29964;17.182;-96.766;2023-07-28T08:42:46;8.53;;;1.97;;
44272;SDS011;29964;17.182;-96.766;2023-07-28T08:45:14;1.47;;;1.13;;
44272;SDS011;29964;17.182;-96.766;2023-07-28T08:47:41;2.17;;;1.67;;
44272;SDS011;29964;17.182;-96.766;2023-07-28T08:50:09;2.10;;;1.47;;
44272;SDS011;29964;17.182;-96.766;2023-07-28T08:52:36;2.03;;;1.10;;
44272;SDS011;29964;17.182;-96.766;2023-07-28T08:55:03;12.83;;;1.80;;
44272;SDS011;29964;17.182;-96.766;2023-07-28T08:57:30;2.43;;;0.83;;
44272;SDS011;29964;17.182;-96.766;2023-07-28T08:59:57;3.47;;;1.17;;
44272;SDS011;29964;17.182;-96.766;2023-07-28T09:02:23;3.87;;;1.97;;
44272;SDS011;29964;17.182;-96.766;2023-07-28T09:04:50;1.50;;;1.20;;
44272;SDS011;29964;17.182;-96.766;2023-07-28T09:07:17;1.93;;;1.17;;
44272;SDS011;29964;17.182;-96.766;2023-07-28T09:09:44;1.13;;;0.80;;
44272;SDS011;29964;17.182;-96.766;2023-07-28T09:12:11;1.13;;;0.80;;
44272;SDS011;29964;17.182;-96.766;2023-07-28T09:14:38;3.27;;;1.33;;
44272;SDS011;29964;17.182;-96.766;2023-07-28T09:17:06;1.37;;;1.10;;
44272;SDS011;29964;17.182;-96.766;2023-07-28T09:19:33;2.57;;;1.50;;
44272;SDS011;29964;17.182;-96.766;2023-07-28T09:22:01;6.93;;;1.17;;
44272;SDS011;29964;17.182;-96.766;2023-07-28T09:24:31;11.87;;;2.20;;
44272;SDS011;29964;17.182;-96.766;2023-07-28T09:26:58;6.07;;;1.60;;
44272;SDS011;29964;17.182;-96.766;2023-07-28T09:29:25;2.27;;;1.40;;
44272;SDS011;29964;17.182;-96.766;2023-07-28T09:32:05;2.33;;;1.50;;
44272;SDS011;29964;17.182;-96.766;2023-07-28T09:34:32;2.40;;;1.60;;
44272;SDS011;29964;17.182;-96.766;2023-07-28T09:36:59;1.50;;;1.07;;
44272;SDS011;29964;17.182;-96.766;2023-07-28T09:39:27;2.40;;;1.37;;
44272;SDS011;29964;17.182;-96.766;2023-07-28T09:41:54;2.27;;;1.30;;
44272;SDS011;29964;17.182;-96.766;2023-07-28T09:44:24;3.23;;;1.60;;
44272;SDS011;29964;17.182;-96.766;2023-07-28T09:46:51;2.23;;;1.20;;
44272;SDS011;29964;17.182;-96.766;2023-07-28T09:49:22;1.67;;;1.10;;
44272;SDS011;29964;17.182;-96.766;2023-07-28T09:51:52;2.57;;;1.03;;
44272;SDS011;29964;17.182;-96.766;2023-07-28T09:54:28;1.10;;;0.83;;
44272;SDS011;29964;17.182;-96.766;2023-07-28T09:56:55;2.13;;;1.10;;
44272;SDS011;29964;17.182;-96.766;2023-07-28T09:59:29;1.63;;;0.97;;
44272;SDS011;29964;17.182;-96.766;2023-07-28T10:01:58;3.37;;;1.30;;
44272;SDS011;29964;17.182;-96.766;2023-07-28T10:04:25;1.10;;;1.00;;
44272;SDS011;29964;17.182;-96.766;2023-07-28T10:06:52;2.13;;;1.00;;
44272;SDS011;29964;17.182;-96.766;2023-07-28T10:09:23;0.60;;;0.60;;
44272;SDS011;29964;17.182;-96.766;2023-07-28T10:11:51;1.30;;;0.63;;
44272;SDS011;29964;17.182;-96.766;2023-07-28T10:14:27;1.53;;;0.67;;
44272;SDS011;29964;17.182;-96.766;2023-07-28T10:16:56;3.20;;;1.23;;
44272;SDS011;29964;17.182;-96.766;2023-07-28T10:19:26;2.90;;;0.97;;
44272;SDS011;29964;17.182;-96.766;2023-07-28T10:22:00;0.50;;;0.50;;
44272;SDS011;29964;17.182;-96.766;2023-07-28T10:27:19;1.25;;;0.90;;
44272;SDS011;29964;17.182;-96.766;2023-07-28T10:29:57;0.80;;;0.60;;
44272;SDS011;29964;17.182;-96.766;2023-07-28T10:32:28;2.23;;;1.07;;
44272;SDS011;29964;17.182;-96.766;2023-07-28T10:35:01;0.90;;;0.67;;
44272;SDS011;29964;17.182;-96.766;2023-07-28T10:37:28;5.77;;;2.00;;
44272;SDS011;29964;17.182;-96.766;2023-07-28T10:42:40;0.98;;;0.60;;
44272;SDS011;29964;17.182;-96.766;2023-07-28T10:45:07;1.73;;;1.00;;
44272;SDS011;29964;17.182;-96.766;2023-07-28T10:47:35;2.40;;;0.93;;
44272;SDS011;29964;17.182;-96.766;2023-07-28T10:50:05;0.87;;;0.80;;
44272;SDS011;29964;17.182;-96.766;2023-07-28T10:52:31;3.77;;;1.53;;
44272;SDS011;29964;17.182;-96.766;2023-07-28T10:54:58;1.27;;;0.80;;
44272;SDS011;29964;17.182;-96.766;2023-07-28T10:57:25;1.60;;;0.83;;
44272;SDS011;29964;17.182;-96.766;2023-07-28T10:59:52;1.27;;;0.87;;
44272;SDS011;29964;17.182;-96.766;2023-07-28T11:02:19;1.47;;;0.77;;
44272;SDS011;29964;17.182;-96.766;2023-07-28T11:04:46;1.43;;;1.00;;
44272;SDS011;29964;17.182;-96.766;2023-07-28T11:07:13;0.90;;;0.80;;
44272;SDS011;29964;17.182;-96.766;2023-07-28T11:09:39;1.30;;;0.93;;
44272;SDS011;29964;17.182;-96.766;2023-07-28T11:12:09;3.27;;;1.40;;
44272;SDS011;29964;17.182;-96.766;2023-07-28T11:14:36;0.77;;;0.60;;
44272;SDS011;29964;17.182;-96.766;2023-07-28T11:17:03;0.87;;;0.83;;
44272;SDS011;29964;17.182;-96.766;2023-07-28T11:19:33;11.87;;;0.87;;
44272;SDS011;29964;17.182;-96.766;2023-07-28T11:22:00;2.70;;;1.30;;
44272;SDS011;29964;17.182;-96.766;2023-07-28T11:24:27;0.57;;;0.57;;
44272;SDS011;29964;17.182;-96.766;2023-07-28T11:26:53;5.07;;;1.00;;
44272;SDS011;29964;17.182;-96.766;2023-07-28T11:29:20;1.50;;;0.90;;
44272;SDS011;29964;17.182;-96.766;2023-07-28T11:31:47;1.73;;;1.20;;
44272;SDS011;29964;17.182;-96.766;2023-07-28T11:34:15;2.33;;;1.10;;
44272;SDS011;29964;17.182;-96.766;2023-07-28T11:36:42;1.73;;;0.87;;
44272;SDS011;29964;17.182;-96.766;2023-07-28T11:39:09;1.87;;;0.93;;
44272;SDS011;29964;17.182;-96.766;2023-07-28T11:41:36;1.57;;;0.80;;
44272;SDS011;29964;17.182;-96.766;2023-07-28T11:44:04;2.70;;;1.07;;
44272;SDS011;29964;17.182;-96.766;2023-07-28T11:46:41;0.87;;;0.70;;
44272;SDS011;29964;17.182;-96.766;2023-07-28T11:49:15;1.47;;;0.77;;
44272;SDS011;29964;17.182;-96.766;2023-07-28T11:51:45;1.10;;;0.80;;
44272;SDS011;29964;17.182;-96.766;2023-07-28T11:54:14;3.87;;;1.03;;
44272;SDS011;29964;17.182;-96.766;2023-07-28T11:56:41;1.67;;;0.83;;
44272;SDS011;29964;17.182;-96.766;2023-07-28T11:59:09;1.87;;;1.03;;
44272;SDS011;29964;17.182;-96.766;2023-07-28T12:04:30;0.53;;;0.50;;
44272;SDS011;29964;17.182;-96.766;2023-07-28T12:07:10;1.03;;;0.77;;
44272;SDS011;29964;17.182;-96.766;2023-07-28T12:12:24;1.17;;;0.87;;
44272;SDS011;29964;17.182;-96.766;2023-07-28T12:14:57;1.20;;;1.03;;
44272;SDS011;29964;17.182;-96.766;2023-07-28T12:17:30;6.43;;;1.13;;
44272;SDS011;29964;17.182;-96.766;2023-07-28T12:22:25;2.73;;;1.40;;
44272;SDS011;29964;17.182;-96.766;2023-07-28T12:24:52;1.63;;;0.87;;
44272;SDS011;29964;17.182;-96.766;2023-07-28T12:27:19;1.13;;;0.80;;
44272;SDS011;29964;17.182;-96.766;2023-07-28T12:29:49;3.37;;;1.20;;
44272;SDS011;29964;17.182;-96.766;2023-07-28T12:32:16;0.93;;;0.67;;
44272;SDS011;29964;17.182;-96.766;2023-07-28T12:34:43;1.70;;;1.20;;
44272;SDS011;29964;17.182;-96.766;2023-07-28T12:37:10;20.30;;;1.07;;
44272;SDS011;29964;17.182;-96.766;2023-07-28T12:39:37;1.10;;;0.90;;
44272;SDS011;29964;17.182;-96.766;2023-07-28T12:42:10;0.70;;;0.67;;
44272;SDS011;29964;17.182;-96.766;2023-07-28T12:44:37;1.33;;;1.07;;
44272;SDS011;29964;17.182;-96.766;2023-07-28T12:47:04;1.23;;;1.07;;
44272;SDS011;29964;17.182;-96.766;2023-07-28T12:49:31;8.53;;;3.97;;
44272;SDS011;29964;17.182;-96.766;2023-07-28T12:52:00;3.00;;;1.63;;
44272;SDS011;29964;17.182;-96.766;2023-07-28T12:54:28;2.13;;;1.63;;
44272;SDS011;29964;17.182;-96.766;2023-07-28T12:56:54;4.63;;;1.80;;
44272;SDS011;29964;17.182;-96.766;2023-07-28T12:59:24;3.63;;;1.93;;
44272;SDS011;29964;17.182;-96.766;2023-07-28T13:01:51;5.03;;;2.77;;
44272;SDS011;29964;17.182;-96.766;2023-07-28T13:04:17;5.03;;;2.57;;
44272;SDS011;29964;17.182;-96.766;2023-07-28T13:06:44;4.93;;;1.83;;
44272;SDS011;29964;17.182;-96.766;2023-07-28T13:09:11;3.17;;;2.10;;
44272;SDS011;29964;17.182;-96.766;2023-07-28T13:11:38;11.53;;;2.50;;
44272;SDS011;29964;17.182;-96.766;2023-07-28T13:14:05;2.17;;;1.10;;
44272;SDS011;29964;17.182;-96.766;2023-07-28T13:16:31;7.67;;;2.07;;
44272;SDS011;29964;17.182;-96.766;2023-07-28T13:18:58;2.90;;;1.63;;
44272;SDS011;29964;17.182;-96.766;2023-07-28T13:21:25;3.60;;;2.00;;
44272;SDS011;29964;17.182;-96.766;2023-07-28T13:23:52;2.27;;;1.60;;
44272;SDS011;29964;17.182;-96.766;2023-07-28T13:26:19;1.63;;;1.30;;
44272;SDS011;29964;17.182;-96.766;2023-07-28T13:28:45;2.60;;;1.63;;
44272;SDS011;29964;17.182;-96.766;2023-07-28T13:31:15;1.40;;;1.00;;
44272;SDS011;29964;17.182;-96.766;2023-07-28T13:33:42;3.47;;;1.70;;
44272;SDS011;29964;17.182;-96.766;2023-07-28T13:36:09;5.00;;;2.67;;
44272;SDS011;29964;17.182;-96.766;2023-07-28T13:38:36;2.90;;;1.90;;
44272;SDS011;29964;17.182;-96.766;2023-07-28T13:41:04;2.57;;;1.90;;
44272;SDS011;29964;17.182;-96.766;2023-07-28T13:43:31;1.63;;;1.20;;
44272;SDS011;29964;17.182;-96.766;2023-07-28T13:46:00;3.30;;;1.77;;
44272;SDS011;29964;17.182;-96.766;2023-07-28T13:48:27;5.30;;;1.67;;
44272;SDS011;29964;17.182;-96.766;2023-07-28T13:50:54;2.10;;;1.33;;
44272;SDS011;29964;17.182;-96.766;2023-07-28T13:53:21;3.23;;;1.50;;
44272;SDS011;29964;17.182;-96.766;2023-07-28T13:55:48;1.60;;;0.80;;
44272;SDS011;29964;17.182;-96.766;2023-07-28T13:58:14;1.30;;;0.77;;
44272;SDS011;29964;17.182;-96.766;2023-07-28T14:00:41;3.43;;;1.27;;
44272;SDS011;29964;17.182;-96.766;2023-07-28T14:03:08;1.33;;;1.10;;
44272;SDS011;29964;17.182;-96.766;2023-07-28T14:05:35;2.67;;;1.80;;
44272;SDS011;29964;17.182;-96.766;2023-07-28T14:08:02;5.27;;;1.57;;
44272;SDS011;29964;17.182;-96.766;2023-07-28T14:10:29;3.80;;;2.23;;
44272;SDS011;29964;17.182;-96.766;2023-07-28T14:12:58;3.83;;;2.33;;
44272;SDS011;29964;17.182;-96.766;2023-07-28T14:15:24;5.03;;;1.60;;
44272;SDS011;29964;17.182;-96.766;2023-07-28T14:17:51;2.40;;;1.70;;
44272;SDS011;29964;17.182;-96.766;2023-07-28T14:20:18;2.93;;;1.37;;
44272;SDS011;29964;17.182;-96.766;2023-07-28T14:22:45;2.70;;;1.20;;
44272;SDS011;29964;17.182;-96.766;2023-07-28T14:25:12;1.67;;;1.17;;
44272;SDS011;29964;17.182;-96.766;2023-07-28T14:27:38;1.40;;;0.70;;
44272;SDS011;29964;17.182;-96.766;2023-07-28T14:30:05;2.53;;;1.20;;
44272;SDS011;29964;17.182;-96.766;2023-07-28T14:32:32;18.13;;;1.67;;
44272;SDS011;29964;17.182;-96.766;2023-07-28T14:34:59;3.27;;;1.30;;
44272;SDS011;29964;17.182;-96.766;2023-07-28T14:37:26;4.73;;;1.83;;
44272;SDS011;29964;17.182;-96.766;2023-07-28T14:39:52;1.57;;;1.13;;